Time;durP1;ratioP1;P1;durP2;ratioP2;P2;SDS_P1;SDS_P2;PMS_P1;PMS_P2;Temp;Humidity;BMP_temperature;BMP_pressure;BME280_temperature;BME280_humidity;BME280_pressure;Samples;Min_cycle;Max_cycle;Signal;HPM_P1;HPM_P2
2022/05/01 00:01:19;;;;;;;11.10;5.07;;;5.30;99.90;;;;;;5028988;28;21481;-90
2022/05/01 00:03:45;;;;;;;5.00;2.93;;;5.20;99.90;;;;;;5046472;28;20252;-89
2022/05/01 00:06:12;;;;;;;5.33;3.60;;;5.20;99.90;;;;;;5046610;28;20273;-89
2022/05/01 00:08:41;;;;;;;5.03;4.53;;;5.20;99.90;;;;;;5047084;28;20289;-89
2022/05/01 00:11:08;;;;;;;5.23;4.13;;;5.20;99.90;;;;;;5046544;28;20689;-88
2022/05/01 00:13:35;;;;;;;5.10;3.87;;;5.20;99.90;;;;;;5046230;28;20226;-89
2022/05/01 00:16:01;;;;;;;9.30;4.17;;;5.20;99.90;;;;;;5046873;28;20241;-90
2022/05/01 00:18:27;;;;;;;5.43;4.93;;;5.20;99.90;;;;;;5046410;28;20225;-89
2022/05/01 00:20:53;;;;;;;7.73;3.90;;;5.20;99.90;;;;;;5046477;28;20229;-89
2022/05/01 00:23:19;;;;;;;8.37;5.33;;;5.20;99.90;;;;;;5047604;28;20190;-89
2022/05/01 00:25:45;;;;;;;5.07;4.27;;;5.30;99.90;;;;;;5043079;28;20981;-89
2022/05/01 00:28:13;;;;;;;7.93;4.40;;;5.30;99.90;;;;;;5046168;28;20234;-88
2022/05/01 00:30:39;;;;;;;7.80;4.93;;;5.20;99.90;;;;;;5046638;28;20221;-89
2022/05/01 00:38:35;;;;;;;9.03;3.67;;;5.00;99.90;;;;;;5044434;28;20224;-90
2022/05/01 00:41:03;;;;;;;6.90;5.83;;;5.00;99.90;;;;;;5043873;28;20225;-89
2022/05/01 00:43:29;;;;;;;6.13;3.63;;;5.10;99.90;;;;;;5046462;28;20304;-89
2022/05/01 00:45:55;;;;;;;13.67;5.00;;;5.10;99.90;;;;;;5046872;28;20301;-89
2022/05/01 00:48:20;;;;;;;6.23;3.97;;;5.10;99.90;;;;;;5044280;28;20271;-89
2022/05/01 00:50:46;;;;;;;4.33;2.77;;;5.20;99.90;;;;;;5045770;28;20194;-89
2022/05/01 00:53:12;;;;;;;4.00;3.60;;;5.10;99.90;;;;;;5005580;28;21106;-89
2022/05/01 00:55:39;;;;;;;4.17;2.70;;;5.10;99.90;;;;;;5045458;28;20210;-88
2022/05/01 00:58:07;;;;;;;10.40;4.57;;;5.20;99.90;;;;;;5062068;28;20748;-88
2022/05/01 01:00:33;;;;;;;5.83;3.13;;;5.30;99.90;;;;;;5045152;28;20226;-89
2022/05/01 01:02:59;;;;;;;3.43;2.80;;;5.40;99.90;;;;;;5029054;28;20194;-88
2022/05/01 01:05:25;;;;;;;4.53;3.90;;;5.50;99.90;;;;;;5047011;28;20185;-89
2022/05/01 01:07:52;;;;;;;4.13;3.37;;;5.50;99.90;;;;;;5046263;28;20226;-89
2022/05/01 01:10:19;;;;;;;5.67;4.03;;;5.70;99.90;;;;;;5042941;28;20257;-89
2022/05/01 01:12:54;;;;;;;6.57;4.20;;;5.70;99.90;;;;;;5041671;28;20697;-88
2022/05/01 01:15:24;;;;;;;5.47;3.93;;;5.80;99.90;;;;;;5042919;28;20217;-89
2022/05/01 01:17:54;;;;;;;9.10;6.03;;;5.80;99.90;;;;;;5027146;28;20194;-88
2022/05/01 01:20:25;;;;;;;5.93;4.90;;;5.70;99.90;;;;;;5029106;28;20230;-87
2022/05/01 01:22:54;;;;;;;4.27;3.97;;;5.60;99.90;;;;;;5045171;28;20637;-88
2022/05/01 01:25:23;;;;;;;9.70;4.20;;;5.50;99.90;;;;;;5061019;28;20245;-89
2022/05/01 01:27:54;;;;;;;6.90;5.20;;;5.30;99.90;;;;;;5045145;28;20214;-88
2022/05/01 01:33:06;;;;;;;5.10;3.67;;;4.90;99.90;;;;;;5044241;28;20186;-89
2022/05/01 01:35:35;;;;;;;3.70;3.40;;;4.90;99.90;;;;;;5045757;28;20190;-88
2022/05/01 01:38:01;;;;;;;9.70;4.03;;;4.80;99.90;;;;;;5043673;28;20222;-88
2022/05/01 01:40:35;;;;;;;6.47;4.23;;;4.80;99.90;;;;;;5045448;28;20237;-89
2022/05/01 01:43:01;;;;;;;4.93;3.33;;;4.70;99.90;;;;;;5045418;28;20268;-89
2022/05/01 01:45:28;;;;;;;3.13;2.93;;;4.50;99.90;;;;;;5044343;28;20263;-88
2022/05/01 01:48:13;;;;;;;3.47;3.20;;;4.30;99.90;;;;;;5060863;28;20182;-88
2022/05/01 01:50:40;;;;;;;4.17;3.27;;;4.10;99.90;;;;;;5045836;28;20200;-89
2022/05/01 01:53:07;;;;;;;4.90;3.23;;;4.00;99.90;;;;;;5045836;28;20260;-88
2022/05/01 01:55:33;;;;;;;3.00;2.73;;;3.90;99.90;;;;;;5044643;28;20226;-88
2022/05/01 01:58:00;;;;;;;4.00;3.40;;;3.80;99.90;;;;;;5044506;28;20257;-89
2022/05/01 02:00:27;;;;;;;3.73;3.43;;;3.90;99.90;;;;;;5028390;28;20287;-88
2022/05/01 02:03:04;;;;;;;3.83;3.53;;;4.00;99.90;;;;;;5043884;28;20194;-89
2022/05/01 02:05:31;;;;;;;3.43;2.23;;;4.00;99.90;;;;;;5045302;28;20193;-88
2022/05/01 02:07:57;;;;;;;5.57;2.97;;;4.10;99.90;;;;;;5027840;28;20232;-89
2022/05/01 02:10:24;;;;;;;3.93;2.60;;;4.00;99.90;;;;;;5028543;28;20224;-89
2022/05/01 02:12:50;;;;;;;4.90;3.23;;;3.90;99.90;;;;;;5044202;28;20271;-89
2022/05/01 02:15:17;;;;;;;2.63;2.53;;;4.00;99.90;;;;;;5044688;28;20217;-88
2022/05/01 02:17:48;;;;;;;4.13;3.17;;;4.10;99.90;;;;;;5045192;28;20186;-89
2022/05/01 02:20:14;;;;;;;6.57;4.03;;;4.10;99.90;;;;;;5028598;28;21204;-88
2022/05/01 02:22:41;;;;;;;6.13;4.30;;;4.10;99.90;;;;;;5045534;28;20221;-89
2022/05/01 02:25:08;;;;;;;9.03;5.80;;;4.10;99.90;;;;;;5045301;28;20222;-89
2022/05/01 02:27:37;;;;;;;9.00;5.00;;;4.10;99.90;;;;;;5043461;28;20284;-89
2022/05/01 02:30:08;;;;;;;4.23;3.80;;;4.10;99.90;;;;;;5027096;28;20194;-89
2022/05/01 02:32:40;;;;;;;2.50;2.30;;;4.20;99.90;;;;;;5045059;28;20182;-89
2022/05/01 02:35:07;;;;;;;3.37;3.17;;;4.20;99.90;;;;;;5044424;28;20403;-89
2022/05/01 02:37:33;;;;;;;2.73;2.47;;;4.10;99.90;;;;;;5045199;28;20226;-87
2022/05/01 02:39:59;;;;;;;2.50;2.20;;;3.90;99.90;;;;;;5044091;28;20598;-88
2022/05/01 02:42:24;;;;;;;4.87;3.33;;;3.80;99.90;;;;;;5027468;28;20228;-89
2022/05/01 02:44:50;;;;;;;3.63;3.30;;;3.70;99.90;;;;;;5045211;28;20190;-88
2022/05/01 02:47:16;;;;;;;7.47;3.37;;;3.60;99.90;;;;;;5044190;28;20213;-89
2022/05/01 02:49:42;;;;;;;2.97;2.73;;;3.60;99.90;;;;;;5045280;28;20221;-89
2022/05/01 02:52:09;;;;;;;2.93;2.63;;;3.70;99.90;;;;;;5044595;28;20241;-89
2022/05/01 02:54:35;;;;;;;3.90;3.60;;;3.70;99.90;;;;;;5045021;28;20418;-89
2022/05/01 02:57:02;;;;;;;3.30;2.77;;;3.80;99.90;;;;;;5045386;28;20194;-89
2022/05/01 02:59:28;;;;;;;8.23;3.40;;;3.80;99.90;;;;;;5028227;28;20222;-89
2022/05/01 03:01:57;;;;;;;4.10;3.80;;;3.70;99.90;;;;;;5045484;28;20341;-88
2022/05/01 03:04:24;;;;;;;5.00;4.43;;;3.60;99.90;;;;;;5062853;28;20313;-88
2022/05/01 03:06:50;;;;;;;4.50;3.00;;;3.60;99.90;;;;;;5048653;28;20214;-89
2022/05/01 03:09:15;;;;;;;4.27;3.93;;;3.70;99.90;;;;;;5030708;28;20241;-89
2022/05/01 03:11:41;;;;;;;2.87;2.63;;;3.70;99.90;;;;;;5048283;28;20190;-89
2022/05/01 03:14:09;;;;;;;4.27;2.57;;;3.60;99.90;;;;;;5049215;28;20666;-89
2022/05/01 03:16:36;;;;;;;2.87;2.60;;;3.50;99.90;;;;;;5031130;28;20233;-90
2022/05/01 03:24:31;;;;;;;2.60;2.43;;;3.60;99.90;;;;;;5048072;28;20218;-89
2022/05/01 03:26:57;;;;;;;2.33;2.17;;;3.60;99.90;;;;;;5048229;28;20465;-89
2022/05/01 03:29:23;;;;;;;2.23;2.10;;;3.60;99.90;;;;;;5049018;28;20198;-90
2022/05/01 03:31:50;;;;;;;2.40;2.30;;;3.50;99.90;;;;;;5031135;28;20694;-89
2022/05/01 03:34:17;;;;;;;5.60;3.17;;;3.30;99.90;;;;;;5014573;28;20209;-88
2022/05/01 03:36:44;;;;;;;2.83;2.63;;;3.10;99.90;;;;;;5048498;28;20213;-89
2022/05/01 03:39:11;;;;;;;2.93;1.63;;;3.00;99.90;;;;;;5062926;28;20236;-88
2022/05/01 03:41:38;;;;;;;4.17;2.57;;;3.00;99.90;;;;;;5047471;28;20190;-89
2022/05/01 03:44:05;;;;;;;3.40;3.13;;;3.10;99.90;;;;;;5030840;28;20306;-89
2022/05/01 03:46:31;;;;;;;3.43;3.13;;;3.00;99.90;;;;;;5047844;28;20225;-89
2022/05/01 03:48:57;;;;;;;1.57;1.47;;;3.00;99.90;;;;;;5047034;28;20873;-89
2022/05/01 03:51:23;;;;;;;3.77;3.43;;;3.00;99.90;;;;;;5046316;28;20214;-90
2022/05/01 03:53:49;;;;;;;3.07;2.77;;;3.10;99.90;;;;;;5046980;28;20189;-90
2022/05/01 03:56:15;;;;;;;3.90;3.60;;;3.10;99.90;;;;;;5047977;28;20875;-89
2022/05/01 03:58:41;;;;;;;2.30;2.10;;;3.10;99.90;;;;;;5048149;28;20214;-90
2022/05/01 04:01:07;;;;;;;2.17;2.07;;;3.00;99.90;;;;;;5029647;28;20241;-90
2022/05/01 04:03:33;;;;;;;2.57;2.37;;;2.90;99.90;;;;;;5045554;28;20313;-87
2022/05/01 04:05:59;;;;;;;3.03;2.73;;;2.90;99.90;;;;;;5046815;28;20197;-88
2022/05/01 04:08:25;;;;;;;4.73;3.43;;;3.00;99.90;;;;;;5046150;28;20194;-88
2022/05/01 04:10:51;;;;;;;1.97;1.80;;;3.00;99.90;;;;;;5046671;28;20706;-90
2022/05/01 04:13:17;;;;;;;4.07;2.70;;;3.00;99.90;;;;;;5029363;28;20218;-90
2022/05/01 04:15:43;;;;;;;5.13;2.90;;;2.90;99.90;;;;;;5047759;28;20217;-89
2022/05/01 04:18:09;;;;;;;2.20;1.53;;;2.90;99.90;;;;;;5046106;28;20194;-89
2022/05/01 04:20:39;;;;;;;1.83;1.73;;;3.00;99.90;;;;;;5046102;28;20217;-89
2022/05/01 04:23:06;;;;;;;1.50;1.40;;;3.00;99.90;;;;;;5046585;28;20280;-90
2022/05/01 04:25:33;;;;;;;1.13;1.13;;;2.90;99.90;;;;;;5047771;28;20392;-90
2022/05/01 04:28:10;;;;;;;2.53;2.33;;;3.00;99.90;;;;;;5046133;28;20218;-90
2022/05/01 04:30:38;;;;;;;2.20;2.03;;;3.00;99.90;;;;;;5046422;28;20291;-89
2022/05/01 04:33:07;;;;;;;2.77;2.57;;;3.10;99.90;;;;;;5047031;28;20202;-89
2022/05/01 04:35:37;;;;;;;3.07;2.67;;;3.20;99.90;;;;;;5046945;28;20200;-90
2022/05/01 04:38:08;;;;;;;3.63;2.27;;;3.30;99.90;;;;;;5045899;28;20229;-89
2022/05/01 04:40:43;;;;;;;1.70;1.67;;;3.50;99.90;;;;;;5046098;28;20267;-90
2022/05/01 04:43:11;;;;;;;3.70;1.90;;;3.70;99.90;;;;;;5047007;28;20221;-90
2022/05/01 04:45:40;;;;;;;4.63;2.23;;;3.80;99.90;;;;;;5045757;28;20213;-90
2022/05/01 04:48:07;;;;;;;3.77;3.30;;;3.90;99.90;;;;;;5045399;28;20177;-89
2022/05/01 04:50:33;;;;;;;1.33;1.23;;;4.00;99.90;;;;;;5047057;28;20521;-89
2022/05/01 04:53:02;;;;;;;4.00;2.23;;;4.00;99.90;;;;;;5046256;28;20222;-89
2022/05/01 04:55:29;;;;;;;1.83;1.73;;;4.00;99.90;;;;;;5045409;28;20217;-88
2022/05/01 04:57:56;;;;;;;2.43;2.13;;;4.10;99.90;;;;;;5045260;28;20300;-89
2022/05/01 05:00:22;;;;;;;4.47;4.03;;;4.30;99.90;;;;;;5044840;28;20226;-90
2022/05/01 05:02:53;;;;;;;4.20;3.03;;;4.50;99.90;;;;;;5045382;28;20805;-90
2022/05/01 05:05:21;;;;;;;1.70;1.60;;;4.70;99.90;;;;;;5061797;28;20221;-90
2022/05/01 05:07:47;;;;;;;2.53;2.30;;;4.90;99.90;;;;;;5046185;28;20225;-90
2022/05/01 05:10:14;;;;;;;1.90;1.80;;;4.90;99.90;;;;;;5045772;28;20222;-90
2022/05/01 05:12:42;;;;;;;3.00;2.73;;;4.80;99.90;;;;;;5045969;28;20220;-91
2022/05/01 05:15:14;;;;;;;3.93;2.53;;;5.00;99.90;;;;;;5045494;28;20296;-90
2022/05/01 05:17:40;;;;;;;2.47;2.03;;;5.60;99.90;;;;;;5045843;28;20178;-90
2022/05/01 05:20:08;;;;;;;3.23;2.93;;;6.30;99.90;;;;;;5045100;28;20237;-90
2022/05/01 05:22:34;;;;;;;4.00;3.53;;;7.10;99.90;;;;;;5045541;28;20217;-90
2022/05/01 05:25:01;;;;;;;2.63;2.53;;;7.70;99.90;;;;;;5028807;28;20312;-88
2022/05/01 05:27:27;;;;;;;2.40;2.20;;;7.70;99.90;;;;;;5044146;28;20217;-89
2022/05/01 05:29:57;;;;;;;2.30;2.10;;;8.20;99.90;;;;;;5045332;28;20185;-88
2022/05/01 05:32:24;;;;;;;3.10;2.20;;;9.00;99.90;;;;;;5045004;28;20239;-90
2022/05/01 05:34:51;;;;;;;4.30;2.67;;;9.90;99.90;;;;;;5045326;28;20222;-90
2022/05/01 05:37:17;;;;;;;3.70;3.27;;;9.80;99.90;;;;;;5045432;28;21036;-90
2022/05/01 05:39:44;;;;;;;3.47;3.17;;;9.60;99.90;;;;;;5043535;28;20241;-90
2022/05/01 05:42:10;;;;;;;5.23;4.37;;;9.50;99.90;;;;;;5042900;28;20186;-90
2022/05/01 05:44:36;;;;;;;5.93;4.10;;;9.30;99.90;;;;;;5041737;28;20174;-90
2022/05/01 05:47:02;;;;;;;3.13;2.50;;;9.10;99.90;;;;;;5043200;28;20225;-89
2022/05/01 05:49:28;;;;;;;3.67;2.63;;;8.80;99.90;;;;;;5042689;28;20231;-89
2022/05/01 05:51:54;;;;;;;5.27;3.77;;;8.60;99.90;;;;;;5044032;28;21058;-89
2022/05/01 05:54:20;;;;;;;8.67;5.00;;;9.30;99.90;;;;;;5044825;28;20245;-89
2022/05/01 05:56:45;;;;;;;6.73;3.83;;;10.30;99.90;;;;;;5027898;28;20199;-90
2022/05/01 05:59:11;;;;;;;4.70;3.33;;;10.60;99.90;;;;;;5044795;28;20225;-89
2022/05/01 06:01:38;;;;;;;6.67;4.17;;;10.60;99.90;;;;;;5045610;28;20245;-90
2022/05/01 06:04:04;;;;;;;5.97;3.90;;;10.60;99.90;;;;;;5028186;28;20444;-89
2022/05/01 06:06:30;;;;;;;3.80;3.43;;;10.40;99.90;;;;;;5044854;28;20209;-88
2022/05/01 06:08:56;;;;;;;8.17;3.83;;;10.30;99.90;;;;;;5044034;28;20576;-89
2022/05/01 06:11:21;;;;;;;4.77;4.37;;;10.30;99.90;;;;;;5044760;28;20197;-90
2022/05/01 06:13:47;;;;;;;7.43;4.73;;;10.40;99.90;;;;;;5020864;28;21138;-89
2022/05/01 06:16:13;;;;;;;8.53;5.90;;;10.60;99.90;;;;;;5011803;28;20226;-90
2022/05/01 06:18:39;;;;;;;5.00;3.43;;;11.00;99.90;;;;;;5044353;28;20218;-90
2022/05/01 06:21:05;;;;;;;6.13;3.90;;;11.20;99.90;;;;;;5028051;28;20213;-90
2022/05/01 06:23:30;;;;;;;5.10;3.73;;;11.20;99.90;;;;;;5046042;28;20243;-90
2022/05/01 06:25:56;;;;;;;7.57;5.50;;;11.60;99.90;;;;;;5044130;28;20225;-90
2022/05/01 06:28:22;;;;;;;7.47;5.27;;;13.10;99.90;;;;;;5044461;28;20222;-89
2022/05/01 06:30:49;;;;;;;5.23;3.73;;;15.20;99.90;;;;;;5044115;28;20216;-89
2022/05/01 06:33:16;;;;;;;5.33;4.30;;;16.70;99.90;;;;;;5060688;28;20526;-88
2022/05/01 06:35:49;;;;;;;6.77;3.73;;;17.20;99.90;;;;;;5045976;28;20213;-90
2022/05/01 06:38:15;;;;;;;5.60;3.90;;;17.10;99.90;;;;;;5045590;28;20305;-88
2022/05/01 06:40:43;;;;;;;4.87;4.10;;;16.50;99.90;;;;;;5048931;28;20989;-87
2022/05/01 06:43:11;;;;;;;4.77;3.57;;;15.50;99.90;;;;;;5048128;28;20305;-87
2022/05/01 06:45:37;;;;;;;4.70;3.50;;;14.90;99.90;;;;;;5048284;28;20260;-91
2022/05/01 06:48:03;;;;;;;6.13;3.60;;;14.30;99.90;;;;;;5064063;28;20194;-92
2022/05/01 06:50:30;;;;;;;44.07;39.27;;;13.70;99.90;;;;;;5049432;28;20197;-88
2022/05/01 06:52:56;;;;;;;15.30;13.07;;;13.40;99.90;;;;;;5047045;28;20218;-90
2022/05/01 06:55:25;;;;;;;11.07;7.80;;;13.60;99.90;;;;;;5047661;28;20221;-89
2022/05/01 06:57:55;;;;;;;8.93;4.73;;;14.10;99.90;;;;;;5048402;28;20307;-90
2022/05/01 07:00:22;;;;;;;6.40;4.83;;;14.40;99.90;;;;;;5048182;28;20232;-89
2022/05/01 07:02:49;;;;;;;8.10;6.40;;;14.80;99.90;;;;;;5048534;28;20260;-90
2022/05/01 07:05:16;;;;;;;5.97;4.10;;;15.20;99.90;;;;;;5047460;28;20202;-89
2022/05/01 07:07:42;;;;;;;11.23;10.23;;;15.30;99.90;;;;;;5047331;28;20331;-90
2022/05/01 07:10:08;;;;;;;4.63;3.43;;;15.50;99.90;;;;;;5031216;28;20217;-88
2022/05/01 07:12:34;;;;;;;4.37;3.43;;;15.60;99.90;;;;;;5047990;28;20221;-86
2022/05/01 07:15:01;;;;;;;4.57;3.33;;;14.90;99.90;;;;;;5047622;28;20322;-90
2022/05/01 07:17:27;;;;;;;6.63;3.87;;;14.90;99.90;;;;;;5048285;28;20189;-88
2022/05/01 07:19:53;;;;;;;7.60;3.47;;;14.60;99.90;;;;;;5047312;28;20583;-90
2022/05/01 07:22:18;;;;;;;3.17;2.70;;;15.50;99.90;;;;;;5048820;28;20214;-90
2022/05/01 07:24:44;;;;;;;6.00;3.47;;;16.30;99.90;;;;;;5047723;28;20213;-89
2022/05/01 07:27:10;;;;;;;4.90;2.83;;;16.30;99.90;;;;;;5047942;28;20190;-88
2022/05/01 07:29:36;;;;;;;8.50;3.40;;;16.90;99.90;;;;;;5044756;28;20333;-89
2022/05/01 07:32:03;;;;;;;2.60;2.10;;;18.00;99.90;;;;;;5042381;28;20250;-90
2022/05/01 07:34:29;;;;;;;2.63;2.33;;;18.80;99.90;;;;;;5044285;28;20670;-88
2022/05/01 07:36:54;;;;;;;6.10;2.63;;;20.30;99.90;;;;;;5011871;28;20224;-88
2022/05/01 07:39:20;;;;;;;3.07;2.47;;;20.90;99.90;;;;;;5028187;28;20717;-89
2022/05/01 07:41:46;;;;;;;5.43;2.80;;;21.10;99.90;;;;;;5029625;28;20638;-88
2022/05/01 07:44:12;;;;;;;3.30;2.97;;;20.00;99.90;;;;;;5043912;28;20291;-89
2022/05/01 07:46:41;;;;;;;3.63;2.60;;;20.00;99.90;;;;;;5046545;28;20278;-89
2022/05/01 07:49:08;;;;;;;2.60;2.40;;;20.40;99.90;;;;;;5044500;28;20238;-90
2022/05/01 07:51:35;;;;;;;5.03;3.30;;;18.90;99.90;;;;;;5045149;28;21134;-89
2022/05/01 07:54:02;;;;;;;4.90;3.20;;;17.30;99.90;;;;;;5029223;28;20186;-90
2022/05/01 07:56:28;;;;;;;4.33;2.17;;;17.30;99.90;;;;;;5046620;28;20212;-89
2022/05/01 07:58:54;;;;;;;3.23;2.50;;;17.60;99.90;;;;;;5044944;28;20206;-89
2022/05/01 08:01:21;;;;;;;4.33;2.70;;;17.60;99.90;;;;;;5045659;28;20230;-90
2022/05/01 08:06:31;;;;;;;5.17;3.07;;;16.30;99.90;;;;;;5046527;28;20239;-89
2022/05/01 08:08:57;;;;;;;5.20;2.87;;;16.80;99.90;;;;;;5044997;28;20190;-91
2022/05/01 08:11:23;;;;;;;5.47;3.70;;;16.90;99.90;;;;;;5047751;28;20600;-87
2022/05/01 08:13:49;;;;;;;4.07;2.53;;;17.00;99.90;;;;;;5045419;28;20308;-90
2022/05/01 08:16:17;;;;;;;3.37;2.70;;;16.50;99.90;;;;;;5010787;28;20671;-90
2022/05/01 08:21:31;;;;;;;3.37;2.27;;;16.00;99.90;;;;;;5042582;28;20616;-90
2022/05/01 08:23:57;;;;;;;4.17;3.10;;;16.00;99.90;;;;;;5025394;28;20299;-89
2022/05/01 08:26:23;;;;;;;4.60;3.10;;;16.10;99.90;;;;;;5045381;28;20190;-90
2022/05/01 08:28:51;;;;;;;5.63;3.30;;;16.10;99.90;;;;;;5025300;28;20245;-89
2022/05/01 08:31:17;;;;;;;3.33;2.80;;;15.40;99.90;;;;;;5043621;28;20225;-90
2022/05/01 08:33:43;;;;;;;3.90;3.20;;;15.20;99.90;;;;;;5027470;28;20212;-90
2022/05/01 08:36:09;;;;;;;6.13;3.67;;;15.00;99.90;;;;;;5028307;28;20255;-90
2022/05/01 08:38:38;;;;;;;4.23;2.77;;;13.70;99.90;;;;;;5012801;28;20186;-90
2022/05/01 08:41:05;;;;;;;4.50;3.10;;;12.80;99.90;;;;;;5043344;28;20217;-90
2022/05/01 08:43:32;;;;;;;3.70;2.53;;;12.40;99.90;;;;;;5026848;28;20228;-89
2022/05/01 08:46:07;;;;;;;6.70;3.50;;;12.60;99.90;;;;;;5042270;28;20214;-88
2022/05/01 08:48:49;;;;;;;3.90;3.17;;;12.80;99.90;;;;;;5044585;28;20210;-90
2022/05/01 08:51:17;;;;;;;4.20;2.77;;;13.20;99.90;;;;;;5044162;28;20233;-88
2022/05/01 08:53:44;;;;;;;3.90;3.27;;;13.60;99.90;;;;;;5043634;28;20255;-89
2022/05/01 08:56:11;;;;;;;6.50;3.47;;;14.10;99.90;;;;;;5044659;28;20213;-89
2022/05/01 08:58:41;;;;;;;6.63;3.53;;;14.50;99.90;;;;;;5044183;28;20234;-90
2022/05/01 09:01:11;;;;;;;4.20;3.43;;;14.90;99.90;;;;;;5026415;28;20266;-89
2022/05/01 09:03:39;;;;;;;4.90;3.53;;;14.30;99.90;;;;;;5027767;28;20214;-89
2022/05/01 09:06:05;;;;;;;3.20;2.80;;;14.40;99.90;;;;;;5043445;28;20206;-90
2022/05/01 09:08:31;;;;;;;4.40;2.87;;;15.20;99.90;;;;;;5044868;28;20190;-89
2022/05/01 09:12:49;;;;;;;3.87;3.23;;;15.80;99.90;;;;;;5027238;28;20334;-88
2022/05/01 09:13:44;;;;;;;5.30;3.33;;;16.80;99.90;;;;;;5041983;28;20629;-90
2022/05/01 09:16:11;;;;;;;8.60;4.10;;;18.10;99.90;;;;;;5026496;28;20217;-86
2022/05/01 09:18:45;;;;;;;4.60;3.43;;;19.60;99.90;;;;;;5025630;28;20253;-91
2022/05/01 09:21:12;;;;;;;4.37;3.17;;;19.30;99.90;;;;;;5027804;28;20445;-87
2022/05/01 09:23:48;;;;;;;4.50;2.60;;;17.90;99.90;;;;;;5042982;28;20192;-89
2022/05/01 09:26:22;;;;;;;5.27;3.47;;;17.40;99.90;;;;;;5028491;28;20217;-89
2022/05/01 09:28:53;;;;;;;8.60;3.77;;;18.80;99.90;;;;;;5045239;28;20228;-89
2022/05/01 09:31:42;;;;;;;4.60;3.30;;;19.40;99.90;;;;;;5027039;28;20257;-90
2022/05/01 09:34:31;;;;;;;5.73;2.90;;;20.90;99.90;;;;;;5044277;28;20213;-90
2022/05/01 09:36:59;;;;;;;3.77;2.70;;;21.30;99.90;;;;;;5043622;28;20222;-89
2022/05/01 09:39:27;;;;;;;3.93;3.50;;;21.30;99.90;;;;;;5040989;28;20233;-90
2022/05/01 09:41:55;;;;;;;4.33;3.53;;;21.20;99.90;;;;;;5037451;28;20247;-88
2022/05/01 09:44:22;;;;;;;4.37;3.40;;;20.10;99.90;;;;;;5054820;28;20203;-89
2022/05/01 09:46:50;;;;;;;6.33;3.50;;;18.30;99.90;;;;;;5025851;28;20217;-87
2022/05/01 09:49:19;;;;;;;4.20;3.00;;;17.30;99.90;;;;;;5044312;28;20337;-88
2022/05/01 09:51:53;;;;;;;3.83;3.40;;;17.10;99.90;;;;;;5035333;28;21000;-89
2022/05/01 09:54:21;;;;;;;4.57;3.20;;;16.70;99.90;;;;;;5043810;28;20232;-89
2022/05/01 09:56:50;;;;;;;4.70;2.87;;;17.30;99.90;;;;;;5044818;28;20182;-88
2022/05/01 09:59:21;;;;;;;3.53;2.93;;;17.70;99.90;;;;;;5042455;28;20226;-87
2022/05/01 10:02:02;;;;;;;4.50;3.13;;;17.80;99.90;;;;;;5041853;28;20221;-88
2022/05/01 10:04:31;;;;;;;7.37;3.50;;;18.00;99.90;;;;;;5041281;28;20307;-89
2022/05/01 10:06:58;;;;;;;6.57;3.43;;;18.30;99.90;;;;;;5039865;28;20263;-88
2022/05/01 10:09:26;;;;;;;5.13;3.30;;;18.40;99.90;;;;;;5042887;28;20216;-88
2022/05/01 10:11:58;;;;;;;3.73;2.70;;;17.90;99.90;;;;;;5060617;28;20205;-87
2022/05/01 10:14:24;;;;;;;3.77;3.20;;;17.70;99.90;;;;;;5065494;28;20236;-87
2022/05/01 10:16:50;;;;;;;6.73;3.47;;;17.80;99.90;;;;;;5030696;28;20214;-88
2022/05/01 10:19:17;;;;;;;4.03;3.23;;;18.00;99.90;;;;;;5034098;28;20304;-89
2022/05/01 10:21:48;;;;;;;4.47;2.60;;;18.10;99.90;;;;;;5030908;28;20240;-89
2022/05/01 10:24:15;;;;;;;7.13;2.87;;;18.10;99.90;;;;;;5045470;28;20283;-89
2022/05/01 10:27:24;;;;;;;3.03;2.67;;;17.10;99.90;;;;;;5037593;28;20221;-93
2022/05/01 10:33:24;;;;;;;5.70;2.53;;;15.20;99.90;;;;;;5010343;28;20263;-92
2022/05/01 10:36:07;;;;;;;4.83;3.07;;;14.80;99.90;;;;;;5056964;28;20194;-95
2022/05/01 10:39:02;;;;;;;5.00;3.23;;;15.00;99.90;;;;;;5053853;28;20202;-94
2022/05/01 10:41:30;;;;;;;3.13;2.60;;;15.10;99.90;;;;;;5055508;28;20236;-93
2022/05/01 10:43:58;;;;;;;5.20;3.07;;;15.70;99.90;;;;;;5072253;28;20257;-90
2022/05/01 10:46:33;;;;;;;5.10;3.33;;;15.80;99.90;;;;;;5052175;28;20214;-86
2022/05/01 10:49:05;;;;;;;5.30;3.17;;;15.70;99.90;;;;;;5050063;28;20571;-87
2022/05/01 10:51:31;;;;;;;3.33;2.50;;;15.40;99.90;;;;;;5030887;28;20229;-88
2022/05/01 10:54:14;;;;;;;3.83;2.87;;;14.60;99.90;;;;;;5048196;28;20194;-84
2022/05/01 10:56:42;;;;;;;3.63;2.80;;;15.40;99.90;;;;;;5048336;28;20204;-88
2022/05/01 10:59:30;;;;;;;3.77;2.53;;;16.00;99.90;;;;;;5051500;28;20236;-87
2022/05/01 11:02:00;;;;;;;5.63;3.07;;;15.50;99.90;;;;;;5050811;28;20275;-89
2022/05/01 11:04:32;;;;;;;6.47;3.30;;;15.80;99.90;;;;;;5046997;28;20212;-87
2022/05/01 11:06:58;;;;;;;3.47;2.97;;;15.90;99.90;;;;;;5054329;28;20218;-88
2022/05/01 11:09:25;;;;;;;3.87;2.77;;;15.80;99.90;;;;;;5050584;28;20210;-87
2022/05/01 11:11:56;;;;;;;3.07;2.33;;;16.30;99.90;;;;;;5051717;28;20193;-87
2022/05/01 11:14:35;;;;;;;3.73;2.53;;;16.50;99.90;;;;;;5034477;28;21147;-86
2022/05/01 11:17:02;;;;;;;4.57;3.00;;;16.10;99.90;;;;;;5052918;28;20694;-87
2022/05/01 11:19:44;;;;;;;4.17;3.07;;;15.20;99.90;;;;;;5053056;28;20210;-86
2022/05/01 11:22:14;;;;;;;4.30;2.87;;;15.10;99.90;;;;;;5052055;28;20276;-87
2022/05/01 11:24:44;;;;;;;2.93;2.57;;;15.10;99.90;;;;;;5052025;28;20217;-90
2022/05/01 11:27:18;;;;;;;4.93;3.20;;;15.30;99.90;;;;;;5051598;28;20182;-87
2022/05/01 11:30:22;;;;;;;4.97;3.07;;;15.90;99.90;;;;;;5042980;28;20174;-88
2022/05/01 11:32:50;;;;;;;3.97;2.73;;;17.00;99.90;;;;;;5039264;28;20248;-86
2022/05/01 11:35:17;;;;;;;3.43;2.50;;;16.00;99.90;;;;;;5031620;28;20194;-90
2022/05/01 11:38:08;;;;;;;5.03;2.93;;;15.50;99.90;;;;;;5048995;28;20213;-92
2022/05/01 11:40:34;;;;;;;4.43;2.97;;;14.90;99.90;;;;;;5039556;28;20321;-89
2022/05/01 11:43:18;;;;;;;3.50;2.93;;;14.90;99.90;;;;;;5028169;28;20679;-90
2022/05/01 11:45:46;;;;;;;4.63;2.77;;;15.80;99.90;;;;;;5041128;28;20713;-88
2022/05/01 11:48:19;;;;;;;6.00;2.50;;;16.40;99.90;;;;;;5043334;28;20281;-88
2022/05/01 11:50:48;;;;;;;4.70;2.50;;;15.90;99.90;;;;;;5046570;28;20193;-86
2022/05/01 11:53:29;;;;;;;4.77;3.47;;;16.80;99.90;;;;;;5044700;28;20218;-88
2022/05/01 12:04:33;;;;;;;3.57;2.67;;;16.70;99.90;;;;;;5045772;28;20222;-91
2022/05/01 12:07:21;;;;;;;6.30;2.93;;;16.50;99.90;;;;;;5044154;28;20237;-86
2022/05/01 12:09:51;;;;;;;4.47;3.00;;;15.90;99.90;;;;;;5043368;28;20244;-86
2022/05/01 12:12:19;;;;;;;5.30;2.60;;;15.50;99.90;;;;;;5044415;28;20300;-89
2022/05/01 12:14:47;;;;;;;4.33;2.60;;;15.20;99.90;;;;;;5044116;28;20635;-86
2022/05/01 12:17:15;;;;;;;8.90;3.53;;;15.00;99.90;;;;;;5045044;28;20210;-85
2022/05/01 12:19:42;;;;;;;4.30;3.10;;;15.20;99.90;;;;;;5027507;28;20245;-87
2022/05/01 12:22:10;;;;;;;3.47;3.13;;;15.70;99.90;;;;;;5044187;28;20252;-89
2022/05/01 12:24:36;;;;;;;4.47;3.03;;;16.60;99.90;;;;;;5047026;28;20209;-88
2022/05/01 12:27:03;;;;;;;3.23;2.90;;;16.90;99.90;;;;;;5045055;28;20844;-86
2022/05/01 12:29:30;;;;;;;4.63;2.80;;;16.50;99.90;;;;;;5063071;28;20186;-85
2022/05/01 12:32:11;;;;;;;2.77;2.20;;;16.30;99.90;;;;;;5046117;28;20245;-87
2022/05/01 12:34:45;;;;;;;4.57;3.13;;;15.80;99.90;;;;;;5044921;28;20228;-87
2022/05/01 12:37:12;;;;;;;9.43;3.17;;;16.10;99.90;;;;;;5044347;28;20224;-86
2022/05/01 12:39:37;;;;;;;3.73;2.63;;;16.50;99.90;;;;;;5043320;28;20721;-90
2022/05/01 12:45:03;;;;;;;4.13;2.80;;;16.40;99.90;;;;;;5045703;28;20187;-87
2022/05/01 12:47:30;;;;;;;4.13;2.50;;;15.80;99.90;;;;;;5045728;28;20235;-87
2022/05/01 12:49:56;;;;;;;3.70;2.70;;;16.30;99.90;;;;;;5044348;28;20230;-90
2022/05/01 12:52:39;;;;;;;4.20;2.90;;;16.90;99.90;;;;;;5045434;28;20218;-87
2022/05/01 12:55:17;;;;;;;5.03;2.80;;;17.10;99.90;;;;;;5043781;28;20312;-89
2022/05/01 12:57:50;;;;;;;3.40;3.10;;;16.80;99.90;;;;;;5046198;28;20217;-89
2022/05/01 13:00:40;;;;;;;4.50;3.10;;;16.70;99.90;;;;;;5047337;28;20216;-85
2022/05/01 13:03:36;;;;;;;4.17;2.53;;;16.60;99.90;;;;;;5043663;28;20193;-85
2022/05/01 13:06:09;;;;;;;3.63;2.37;;;16.40;99.90;;;;;;5057831;28;20193;-88
2022/05/01 13:08:38;;;;;;;5.80;3.27;;;16.10;99.90;;;;;;5042561;28;20204;-90
2022/05/01 13:11:23;;;;;;;3.57;2.80;;;15.80;99.90;;;;;;5039555;28;20332;-86
2022/05/01 13:14:09;;;;;;;5.43;3.13;;;15.50;99.90;;;;;;5040657;28;20222;-85
2022/05/01 13:16:35;;;;;;;5.03;3.20;;;15.70;99.90;;;;;;5041444;28;20886;-88
2022/05/01 13:19:06;;;;;;;3.27;2.80;;;15.80;99.90;;;;;;5043068;28;20225;-87
2022/05/01 13:21:34;;;;;;;7.00;2.97;;;15.90;99.90;;;;;;5060484;28;20257;-84
2022/05/01 13:24:08;;;;;;;4.27;3.47;;;15.90;99.90;;;;;;5043316;28;20277;-86
2022/05/01 13:26:35;;;;;;;5.97;3.50;;;15.40;99.90;;;;;;5044279;28;20286;-88
2022/05/01 13:29:02;;;;;;;3.53;2.03;;;15.40;99.90;;;;;;5043906;28;20553;-85
2022/05/01 13:31:28;;;;;;;4.97;2.60;;;15.60;99.90;;;;;;5044471;28;20608;-86
2022/05/01 13:33:54;;;;;;;4.97;3.40;;;15.50;99.90;;;;;;5027073;28;20662;-84